Terminal Aerodrome Forecast
Issued by NWS

Current Version | Previous Version | Graphics & Text | Print | Product List | Glossary Off
Versions: 1 2 3 4 5 6 7 8 9 10 11 12 13 14 15 16

000
FTUS42 KILM 301126
TAFCRE
TAF
KCRE 301126Z 3012/0112 25007KT P6SM FEW250
     FM301600 21010KT P6SM SCT040 SCT250
     FM301900 20018KT P6SM FEW050 SCT090
     FM010300 22009KT P6SM VCTS SCT050CB BKN120
     FM010600 24006KT P6SM FEW060 SCT160=

USA.gov is the U.S. government's official web portal to all federal, state and local government web resources and services.